Time;durP1;ratioP1;P1;durP2;ratioP2;P2;SDS_P1;SDS_P2;PMS_P1;PMS_P2;Temp;Humidity;BMP_temperature;BMP_pressure;BME280_temperature;BME280_humidity;BME280_pressure;Samples;Min_cycle;Max_cycle;Signal;HPM_P1;HPM_P2
2022/05/23 00:01:38;;;;;;;7.80;4.90;;;;;;;;;;5100107;28;20275;-70
2022/05/23 00:04:06;;;;;;;7.97;4.67;;;;;;;;;;5100386;28;20243;-71
2022/05/23 00:06:34;;;;;;;10.13;5.10;;;;;;;;;;5100217;28;20228;-71
2022/05/23 00:09:03;;;;;;;7.63;4.67;;;;;;;;;;5099648;28;20288;-71
2022/05/23 00:11:33;;;;;;;10.57;5.27;;;;;;;;;;5100036;28;20220;-71
2022/05/23 00:14:01;;;;;;;7.90;4.63;;;;;;;;;;5088118;28;20232;-71
2022/05/23 00:16:32;;;;;;;7.00;4.57;;;;;;;;;;5098010;28;20254;-71
2022/05/23 00:19:00;;;;;;;8.63;5.10;;;;;;;;;;5087881;28;20207;-71
2022/05/23 00:21:28;;;;;;;7.47;5.47;;;;;;;;;;5099131;28;20267;-71
2022/05/23 00:23:56;;;;;;;7.43;4.60;;;;;;;;;;5099586;28;20233;-72
2022/05/23 00:26:24;;;;;;;9.77;4.63;;;;;;;;;;5099214;28;20254;-72
2022/05/23 00:28:54;;;;;;;5.90;4.47;;;;;;;;;;5096078;28;20203;-71
2022/05/23 00:31:21;;;;;;;4.30;3.90;;;;;;;;;;5099240;28;20236;-71
2022/05/23 00:36:35;;;;;;;4.60;4.20;;;;;;;;;;5099279;28;20237;-71
2022/05/23 00:39:03;;;;;;;8.03;4.80;;;;;;;;;;5098198;28;20657;-71
2022/05/23 00:44:21;;;;;;;9.37;4.37;;;;;;;;;;5094405;28;20230;-71
2022/05/23 00:46:50;;;;;;;9.10;4.80;;;;;;;;;;5096114;28;20250;-71
2022/05/23 00:49:20;;;;;;;5.93;4.90;;;;;;;;;;5093868;28;20198;-71
2022/05/23 00:51:48;;;;;;;7.00;4.43;;;;;;;;;;5095946;28;20584;-72
2022/05/23 00:54:16;;;;;;;11.50;4.77;;;;;;;;;;5095883;28;20226;-71
2022/05/23 00:56:45;;;;;;;12.50;4.47;;;;;;;;;;5096070;28;20263;-72
2022/05/23 00:59:15;;;;;;;5.83;4.63;;;;;;;;;;5097791;28;20224;-71
2022/05/23 01:01:45;;;;;;;8.60;4.40;;;;;;;;;;5098762;28;20505;-71
2022/05/23 01:04:13;;;;;;;9.60;4.67;;;;;;;;;;5099365;28;20234;-71
2022/05/23 01:06:42;;;;;;;6.40;4.83;;;;;;;;;;5099007;28;20221;-71
2022/05/23 01:09:10;;;;;;;8.30;4.47;;;;;;;;;;5098033;28;20685;-71
2022/05/23 01:11:38;;;;;;;7.70;4.53;;;;;;;;;;5097714;28;20213;-71
2022/05/23 01:14:06;;;;;;;7.13;4.27;;;;;;;;;;5098655;28;20687;-71
2022/05/23 01:16:34;;;;;;;7.27;4.47;;;;;;;;;;5098253;28;20662;-71
2022/05/23 01:19:04;;;;;;;9.03;4.40;;;;;;;;;;5098647;28;20209;-71
2022/05/23 01:21:38;;;;;;;7.70;4.37;;;;;;;;;;5098592;28;20216;-71
2022/05/23 01:24:08;;;;;;;9.03;5.70;;;;;;;;;;5098255;28;20206;-72
2022/05/23 01:26:38;;;;;;;8.27;4.73;;;;;;;;;;5098324;28;20719;-71
2022/05/23 01:29:11;;;;;;;8.97;4.23;;;;;;;;;;5098640;28;20209;-71
2022/05/23 01:31:39;;;;;;;10.63;4.23;;;;;;;;;;5098536;28;20231;-71
2022/05/23 01:34:07;;;;;;;6.87;4.10;;;;;;;;;;5098160;28;20753;-71
2022/05/23 01:36:35;;;;;;;8.90;4.20;;;;;;;;;;5098318;28;20289;-71
2022/05/23 01:39:03;;;;;;;7.67;4.60;;;;;;;;;;5097704;28;20208;-71
2022/05/23 01:41:32;;;;;;;10.03;4.43;;;;;;;;;;5098311;28;20212;-71
2022/05/23 01:44:01;;;;;;;7.53;4.30;;;;;;;;;;5098432;28;20236;-71
2022/05/23 01:46:29;;;;;;;9.53;4.43;;;;;;;;;;5098113;28;20221;-71
2022/05/23 01:48:57;;;;;;;8.13;4.30;;;;;;;;;;5098070;28;20713;-71
2022/05/23 01:51:25;;;;;;;5.07;4.10;;;;;;;;;;5097707;28;20228;-71
2022/05/23 01:53:53;;;;;;;5.73;4.40;;;;;;;;;;5097612;28;20204;-72
2022/05/23 01:56:21;;;;;;;8.50;4.20;;;;;;;;;;5084135;28;20268;-73
2022/05/23 02:01:42;;;;;;;7.53;4.07;;;;;;;;;;5097714;28;20282;-73
2022/05/23 02:04:10;;;;;;;6.47;4.13;;;;;;;;;;5097923;28;20212;-73
2022/05/23 02:06:38;;;;;;;8.53;4.93;;;;;;;;;;5097904;28;20253;-73
2022/05/23 02:09:06;;;;;;;12.77;4.77;;;;;;;;;;5097523;28;20232;-73
2022/05/23 02:11:34;;;;;;;7.23;4.23;;;;;;;;;;5097456;28;20744;-73
2022/05/23 02:14:02;;;;;;;6.13;4.07;;;;;;;;;;5097865;28;20243;-73
2022/05/23 02:16:30;;;;;;;7.33;4.10;;;;;;;;;;5097187;28;20633;-73
2022/05/23 02:19:01;;;;;;;10.87;4.10;;;;;;;;;;5086307;28;20237;-73
2022/05/23 02:21:29;;;;;;;8.50;4.53;;;;;;;;;;5097104;28;20579;-73
2022/05/23 02:23:57;;;;;;;6.30;4.23;;;;;;;;;;5097202;28;20576;-73
2022/05/23 02:26:25;;;;;;;7.50;4.33;;;;;;;;;;5097489;28;20257;-73
2022/05/23 02:28:53;;;;;;;6.00;4.37;;;;;;;;;;5097767;28;20209;-73
2022/05/23 02:31:21;;;;;;;9.83;4.63;;;;;;;;;;5097759;28;20216;-73
2022/05/23 02:33:49;;;;;;;4.77;4.13;;;;;;;;;;5097611;28;20206;-73
2022/05/23 02:36:18;;;;;;;9.93;4.80;;;;;;;;;;5097184;28;20260;-73
2022/05/23 02:38:46;;;;;;;7.50;4.63;;;;;;;;;;5097105;28;20201;-72
2022/05/23 02:41:14;;;;;;;12.07;4.53;;;;;;;;;;5097452;28;20236;-73
2022/05/23 02:43:42;;;;;;;8.47;4.53;;;;;;;;;;5097360;28;20243;-73
2022/05/23 02:46:10;;;;;;;6.67;4.00;;;;;;;;;;5097585;28;20259;-72
2022/05/23 02:48:38;;;;;;;11.00;5.00;;;;;;;;;;5097653;28;20235;-72
2022/05/23 02:51:07;;;;;;;5.37;4.53;;;;;;;;;;5097435;28;20225;-73
2022/05/23 02:53:36;;;;;;;6.83;4.27;;;;;;;;;;5097227;28;20277;-73
2022/05/23 02:56:04;;;;;;;9.47;4.67;;;;;;;;;;5097015;28;20260;-73
2022/05/23 02:58:32;;;;;;;7.83;5.43;;;;;;;;;;5097621;28;20236;-72
2022/05/23 03:01:00;;;;;;;7.03;4.47;;;;;;;;;;5096992;28;20202;-72
2022/05/23 03:03:27;;;;;;;7.30;4.97;;;;;;;;;;5097412;28;20568;-73
2022/05/23 03:05:56;;;;;;;7.83;4.27;;;;;;;;;;5097242;28;20266;-73
2022/05/23 03:08:25;;;;;;;6.97;4.80;;;;;;;;;;5096805;28;20241;-73
2022/05/23 03:10:56;;;;;;;8.20;4.70;;;;;;;;;;5097515;28;20212;-72
2022/05/23 03:13:25;;;;;;;6.73;4.33;;;;;;;;;;5097468;28;20216;-73
2022/05/23 03:15:53;;;;;;;7.23;4.10;;;;;;;;;;5097080;28;20255;-73
2022/05/23 03:18:21;;;;;;;8.50;5.03;;;;;;;;;;5097247;28;20238;-73
2022/05/23 03:20:54;;;;;;;6.63;4.17;;;;;;;;;;5097218;28;20210;-72
2022/05/23 03:28:54;;;;;;;8.70;5.30;;;;;;;;;;5097314;28;20246;-72
2022/05/23 03:31:22;;;;;;;9.33;4.40;;;;;;;;;;5096857;28;20209;-72
2022/05/23 03:33:51;;;;;;;8.17;4.47;;;;;;;;;;5097395;28;20756;-73
2022/05/23 03:36:19;;;;;;;6.77;4.50;;;;;;;;;;5100472;28;20644;-72
2022/05/23 03:38:47;;;;;;;15.77;5.00;;;;;;;;;;5100267;28;20212;-72
2022/05/23 03:41:17;;;;;;;8.40;4.60;;;;;;;;;;5100370;28;20242;-72
2022/05/23 03:43:45;;;;;;;7.73;4.77;;;;;;;;;;5100432;28;20211;-72
2022/05/23 03:46:14;;;;;;;5.37;3.97;;;;;;;;;;5100415;28;20277;-72
2022/05/23 03:48:43;;;;;;;9.47;4.63;;;;;;;;;;5099397;28;20215;-72
2022/05/23 03:51:11;;;;;;;7.37;4.53;;;;;;;;;;5098332;28;20216;-72
2022/05/23 03:53:39;;;;;;;7.43;4.60;;;;;;;;;;5100163;28;20235;-72
2022/05/23 03:56:07;;;;;;;8.70;4.53;;;;;;;;;;5099938;28;20262;-72
2022/05/23 03:58:37;;;;;;;13.63;5.67;;;;;;;;;;5100131;28;20260;-72
2022/05/23 04:01:09;;;;;;;6.07;4.80;;;;;;;;;;5099982;28;20265;-72
2022/05/23 04:03:37;;;;;;;9.07;4.47;;;;;;;;;;5100188;28;20242;-72
2022/05/23 04:06:05;;;;;;;7.07;4.87;;;;;;;;;;5099736;28;20294;-72
2022/05/23 04:08:34;;;;;;;9.77;4.63;;;;;;;;;;5099499;28;20258;-72
2022/05/23 04:11:03;;;;;;;8.13;4.93;;;;;;;;;;5100273;28;20247;-73
2022/05/23 04:13:31;;;;;;;11.50;4.40;;;;;;;;;;5095362;28;20253;-73
2022/05/23 04:16:01;;;;;;;8.73;4.53;;;;;;;;;;5099644;28;20259;-73
2022/05/23 04:18:29;;;;;;;7.00;5.37;;;;;;;;;;5096650;28;20669;-73
2022/05/23 04:20:58;;;;;;;8.23;4.83;;;;;;;;;;5098383;28;20203;-72
2022/05/23 04:23:26;;;;;;;6.80;4.70;;;;;;;;;;5098069;28;20228;-73
2022/05/23 04:25:54;;;;;;;7.50;4.73;;;;;;;;;;5098094;28;20261;-73
2022/05/23 04:28:22;;;;;;;9.13;4.50;;;;;;;;;;5099079;28;20290;-73
2022/05/23 04:30:50;;;;;;;6.50;4.60;;;;;;;;;;5099524;28;20265;-73
2022/05/23 04:36:06;;;;;;;7.73;4.70;;;;;;;;;;5099609;28;20235;-71
2022/05/23 04:38:34;;;;;;;7.70;4.60;;;;;;;;;;5099023;28;20263;-71
2022/05/23 04:41:06;;;;;;;11.13;5.40;;;;;;;;;;5099212;28;20728;-75
2022/05/23 04:43:34;;;;;;;7.40;4.80;;;;;;;;;;5099284;28;20651;-75
2022/05/23 04:46:02;;;;;;;10.07;5.00;;;;;;;;;;5098180;28;20262;-75
2022/05/23 04:51:26;;;;;;;9.90;4.80;;;;;;;;;;5074513;28;20234;-75
2022/05/23 04:53:55;;;;;;;6.70;4.43;;;;;;;;;;5098919;28;20247;-75
2022/05/23 04:56:23;;;;;;;9.87;5.20;;;;;;;;;;5099014;28;20250;-75
2022/05/23 04:58:51;;;;;;;11.13;4.80;;;;;;;;;;5098954;28;20240;-75
2022/05/23 05:01:21;;;;;;;7.87;4.70;;;;;;;;;;5099030;28;20266;-75
2022/05/23 05:03:53;;;;;;;11.30;5.17;;;;;;;;;;5098997;28;20209;-76
2022/05/23 05:06:21;;;;;;;11.20;5.80;;;;;;;;;;5098716;28;20236;-76
2022/05/23 05:08:50;;;;;;;6.87;5.10;;;;;;;;;;5098487;28;20228;-76
2022/05/23 05:11:18;;;;;;;6.50;4.83;;;;;;;;;;5096696;28;20212;-76
2022/05/23 05:13:46;;;;;;;5.00;4.37;;;;;;;;;;5096176;28;20203;-76
2022/05/23 05:16:19;;;;;;;8.77;4.90;;;;;;;;;;5098589;28;20262;-76
2022/05/23 05:18:47;;;;;;;8.40;5.80;;;;;;;;;;5098424;28;20223;-76
2022/05/23 05:21:16;;;;;;;9.67;4.90;;;;;;;;;;5098700;28;20654;-76
2022/05/23 05:23:44;;;;;;;7.83;5.03;;;;;;;;;;5098129;28;20219;-76
2022/05/23 05:26:12;;;;;;;8.50;4.53;;;;;;;;;;5098693;28;20224;-76
2022/05/23 05:28:40;;;;;;;7.77;4.80;;;;;;;;;;5098330;28;20614;-76
2022/05/23 05:31:10;;;;;;;9.53;5.10;;;;;;;;;;5098322;28;20258;-76
2022/05/23 05:33:40;;;;;;;10.03;5.73;;;;;;;;;;5098643;28;20215;-76
2022/05/23 05:36:10;;;;;;;10.80;5.23;;;;;;;;;;5098011;28;20747;-76
2022/05/23 05:38:42;;;;;;;8.60;5.43;;;;;;;;;;5098108;28;20268;-75
2022/05/23 05:41:12;;;;;;;7.57;4.87;;;;;;;;;;5098130;28;20346;-75
2022/05/23 05:43:41;;;;;;;10.17;5.40;;;;;;;;;;5098087;28;20577;-74
2022/05/23 05:46:13;;;;;;;6.57;4.60;;;;;;;;;;5098151;28;20231;-74
2022/05/23 05:48:41;;;;;;;6.77;4.87;;;;;;;;;;5098264;28;20199;-74
2022/05/23 05:51:10;;;;;;;10.47;5.00;;;;;;;;;;5098165;28;20233;-74
2022/05/23 05:53:40;;;;;;;9.47;5.30;;;;;;;;;;5097480;28;20243;-74
2022/05/23 05:56:09;;;;;;;7.20;4.87;;;;;;;;;;5098209;28;20251;-69
2022/05/23 05:58:37;;;;;;;9.27;5.37;;;;;;;;;;5097600;28;20227;-67
2022/05/23 06:01:05;;;;;;;11.17;5.57;;;;;;;;;;5097592;28;20208;-68
2022/05/23 06:03:34;;;;;;;7.40;4.70;;;;;;;;;;5097885;28;20211;-70
2022/05/23 06:11:34;;;;;;;7.97;5.10;;;;;;;;;;5098026;28;20202;-69
2022/05/23 06:14:04;;;;;;;11.17;4.90;;;;;;;;;;5097443;28;20662;-71
2022/05/23 06:16:33;;;;;;;9.83;4.97;;;;;;;;;;5093351;28;20257;-68
2022/05/23 06:19:01;;;;;;;7.73;4.97;;;;;;;;;;5096306;28;20227;-70
2022/05/23 06:21:29;;;;;;;10.17;5.80;;;;;;;;;;5092045;28;20195;-70
2022/05/23 06:23:59;;;;;;;10.83;5.77;;;;;;;;;;5090991;28;20750;-70
2022/05/23 06:26:32;;;;;;;7.20;4.90;;;;;;;;;;5093993;28;20233;-69
2022/05/23 06:29:01;;;;;;;9.63;5.10;;;;;;;;;;5097491;28;20197;-71
2022/05/23 06:31:31;;;;;;;7.70;5.63;;;;;;;;;;5097519;28;20208;-71
2022/05/23 06:33:59;;;;;;;7.27;4.83;;;;;;;;;;5097585;28;20292;-70
2022/05/23 06:36:27;;;;;;;10.40;5.80;;;;;;;;;;5097005;28;20290;-71
2022/05/23 06:38:55;;;;;;;10.73;5.73;;;;;;;;;;5090962;28;20232;-68
2022/05/23 06:41:25;;;;;;;9.50;5.37;;;;;;;;;;5093596;28;20745;-67
2022/05/23 06:43:53;;;;;;;10.23;6.77;;;;;;;;;;5096859;28;20233;-68
2022/05/23 06:46:21;;;;;;;12.07;6.00;;;;;;;;;;5096251;28;20315;-67
2022/05/23 06:48:49;;;;;;;16.03;6.17;;;;;;;;;;5095087;28;20603;-68
2022/05/23 06:51:17;;;;;;;8.00;5.60;;;;;;;;;;5095113;28;20552;-68
2022/05/23 06:53:45;;;;;;;11.33;5.53;;;;;;;;;;5095280;28;20206;-67
2022/05/23 06:56:13;;;;;;;10.33;5.73;;;;;;;;;;5095239;28;20225;-67
2022/05/23 06:58:43;;;;;;;9.80;5.10;;;;;;;;;;5095210;28;20222;-69
2022/05/23 07:01:11;;;;;;;8.90;5.13;;;;;;;;;;5095042;28;20290;-69
2022/05/23 07:03:39;;;;;;;11.83;5.40;;;;;;;;;;5096974;28;20290;-70
2022/05/23 07:14:34;;;;;;;6.27;4.40;;;;;;;;;;5070739;28;20666;-69
2022/05/23 07:17:02;;;;;;;10.00;4.73;;;;;;;;;;5100683;28;20252;-67
2022/05/23 07:19:30;;;;;;;8.30;5.27;;;;;;;;;;5100374;28;20593;-67
2022/05/23 07:21:59;;;;;;;5.07;4.23;;;;;;;;;;5100333;28;20649;-67
2022/05/23 07:24:28;;;;;;;7.90;4.30;;;;;;;;;;5100722;28;20211;-68
2022/05/23 07:26:56;;;;;;;7.37;4.63;;;;;;;;;;5100214;28;20614;-67
2022/05/23 07:29:24;;;;;;;8.20;5.03;;;;;;;;;;5100887;28;20242;-69
2022/05/23 07:31:54;;;;;;;11.10;4.77;;;;;;;;;;5100374;28;20204;-69
2022/05/23 07:34:22;;;;;;;5.70;4.50;;;;;;;;;;5100651;28;20201;-69
2022/05/23 07:36:50;;;;;;;11.50;4.97;;;;;;;;;;5100120;28;20250;-69
2022/05/23 07:39:18;;;;;;;5.70;4.20;;;;;;;;;;5100350;28;20260;-69
2022/05/23 07:41:46;;;;;;;7.10;4.33;;;;;;;;;;5100303;28;20237;-69
2022/05/23 07:44:14;;;;;;;4.57;4.00;;;;;;;;;;5100074;28;20201;-69
2022/05/23 07:46:43;;;;;;;9.30;4.40;;;;;;;;;;5100051;28;20260;-68
2022/05/23 07:49:12;;;;;;;5.37;3.87;;;;;;;;;;5100169;28;20244;-69
2022/05/23 07:51:40;;;;;;;4.87;3.50;;;;;;;;;;5099807;28;20212;-70
2022/05/23 08:02:21;;;;;;;4.47;3.50;;;;;;;;;;5099854;28;20245;-75
2022/05/23 08:04:51;;;;;;;6.23;3.30;;;;;;;;;;5099903;28;20256;-74
2022/05/23 08:07:19;;;;;;;5.47;3.77;;;;;;;;;;5099690;28;20259;-74
2022/05/23 08:09:47;;;;;;;4.10;3.27;;;;;;;;;;5099729;28;20240;-74
2022/05/23 08:12:16;;;;;;;4.97;2.80;;;;;;;;;;5094526;28;20235;-74
2022/05/23 08:14:44;;;;;;;6.43;3.30;;;;;;;;;;5099587;28;20259;-74
2022/05/23 08:17:12;;;;;;;5.50;3.17;;;;;;;;;;5099505;28;20729;-74
2022/05/23 08:19:40;;;;;;;5.97;3.40;;;;;;;;;;5098572;28;20716;-74
2022/05/23 08:22:11;;;;;;;8.07;3.83;;;;;;;;;;5099295;28;20218;-74
2022/05/23 08:24:39;;;;;;;4.37;3.13;;;;;;;;;;5099054;28;20654;-74
2022/05/23 08:27:07;;;;;;;6.07;3.50;;;;;;;;;;5099176;28;20263;-75
2022/05/23 08:29:36;;;;;;;6.50;3.60;;;;;;;;;;5099290;28;20231;-75
2022/05/23 08:32:05;;;;;;;5.60;3.63;;;;;;;;;;5099443;28;20260;-75
2022/05/23 08:34:33;;;;;;;5.37;2.80;;;;;;;;;;5099099;28;20237;-76
2022/05/23 08:37:01;;;;;;;6.80;3.53;;;;;;;;;;5098961;28;20230;-76
2022/05/23 08:39:31;;;;;;;8.67;3.57;;;;;;;;;;5099077;28;20268;-75
2022/05/23 08:42:03;;;;;;;5.73;3.37;;;;;;;;;;5099061;28;20211;-75
2022/05/23 08:44:37;;;;;;;5.73;3.20;;;;;;;;;;5099064;28;20208;-76
2022/05/23 08:47:08;;;;;;;5.57;3.83;;;;;;;;;;5099051;28;20261;-75
2022/05/23 08:49:44;;;;;;;7.60;3.77;;;;;;;;;;5098769;28;20266;-75
2022/05/23 08:52:14;;;;;;;7.23;3.37;;;;;;;;;;5098875;28;20208;-75
2022/05/23 08:54:51;;;;;;;8.00;3.77;;;;;;;;;;5098810;28;20203;-76
2022/05/23 08:57:23;;;;;;;6.80;3.73;;;;;;;;;;5099006;28;20261;-75
2022/05/23 08:59:53;;;;;;;9.13;3.97;;;;;;;;;;5098398;28;20644;-75
2022/05/23 09:02:25;;;;;;;11.73;3.83;;;;;;;;;;5098391;28;20269;-75
2022/05/23 09:04:56;;;;;;;6.40;3.50;;;;;;;;;;5098629;28;20206;-75
2022/05/23 09:07:26;;;;;;;7.60;3.63;;;;;;;;;;5098494;28;20221;-75
2022/05/23 09:09:57;;;;;;;10.17;4.03;;;;;;;;;;5098451;28;20243;-75
2022/05/23 09:12:26;;;;;;;7.73;3.63;;;;;;;;;;5093543;28;20220;-75
2022/05/23 09:14:54;;;;;;;9.33;3.87;;;;;;;;;;5098462;28;20216;-73
2022/05/23 09:17:24;;;;;;;5.43;3.07;;;;;;;;;;5098301;28;20300;-73
2022/05/23 09:19:56;;;;;;;4.77;4.07;;;;;;;;;;5098297;28;20646;-74
2022/05/23 09:22:35;;;;;;;6.70;3.43;;;;;;;;;;5098201;28;20657;-73
2022/05/23 09:25:06;;;;;;;7.20;3.30;;;;;;;;;;5098116;28;20205;-74
2022/05/23 09:27:36;;;;;;;6.47;3.57;;;;;;;;;;5098375;28;20667;-74
2022/05/23 09:30:05;;;;;;;8.30;4.03;;;;;;;;;;5094567;28;20255;-75
2022/05/23 09:32:35;;;;;;;8.80;3.37;;;;;;;;;;5096895;28;20244;-74
2022/05/23 09:35:04;;;;;;;5.93;3.70;;;;;;;;;;5095749;28;20233;-75
2022/05/23 09:37:37;;;;;;;8.03;3.17;;;;;;;;;;5096797;28;20236;-76
2022/05/23 09:40:09;;;;;;;9.43;3.53;;;;;;;;;;5098595;28;20261;-74
2022/05/23 09:48:14;;;;;;;6.13;3.07;;;;;;;;;;5086682;28;20574;-73
2022/05/23 09:50:44;;;;;;;5.27;3.07;;;;;;;;;;5085871;28;20229;-72
2022/05/23 09:53:21;;;;;;;11.90;3.40;;;;;;;;;;5097260;28;20251;-73
2022/05/23 09:55:50;;;;;;;4.87;3.13;;;;;;;;;;5097688;28;20713;-75
2022/05/23 09:58:22;;;;;;;4.53;3.23;;;;;;;;;;5096078;28;20211;-75
2022/05/23 10:00:58;;;;;;;5.27;3.07;;;;;;;;;;5097715;28;20290;-74
2022/05/23 10:03:28;;;;;;;7.83;3.80;;;;;;;;;;5097816;28;20214;-74
2022/05/23 10:06:03;;;;;;;6.13;3.07;;;;;;;;;;5097516;28;20233;-75
2022/05/23 10:08:33;;;;;;;7.53;3.40;;;;;;;;;;5097379;28;20257;-73
2022/05/23 10:11:03;;;;;;;6.83;3.30;;;;;;;;;;5097634;28;20240;-75
2022/05/23 10:13:33;;;;;;;9.27;3.50;;;;;;;;;;5093059;28;20200;-78
2022/05/23 10:16:11;;;;;;;8.00;4.23;;;;;;;;;;5097532;28;20257;-75
2022/05/23 10:18:46;;;;;;;7.90;3.40;;;;;;;;;;5097133;28;20237;-76
2022/05/23 10:21:20;;;;;;;7.63;3.73;;;;;;;;;;5087090;28;20278;-75
2022/05/23 10:23:59;;;;;;;4.67;3.30;;;;;;;;;;5091699;28;20242;-73
2022/05/23 10:26:29;;;;;;;8.53;5.03;;;;;;;;;;5094988;28;20253;-75
2022/05/23 10:29:01;;;;;;;5.20;3.57;;;;;;;;;;5096159;28;20758;-75
2022/05/23 10:31:30;;;;;;;8.97;3.63;;;;;;;;;;5091628;28;20236;-75
2022/05/23 10:33:59;;;;;;;9.33;3.57;;;;;;;;;;5093741;28;20200;-75
2022/05/23 10:36:30;;;;;;;8.23;3.43;;;;;;;;;;5095538;28;20227;-77
2022/05/23 10:42:10;;;;;;;8.77;3.40;;;;;;;;;;5085729;28;20713;-77
2022/05/23 10:44:50;;;;;;;6.23;3.27;;;;;;;;;;5100858;28;20575;-77
2022/05/23 10:47:22;;;;;;;9.43;4.07;;;;;;;;;;5101182;28;20223;-76
2022/05/23 10:49:53;;;;;;;8.17;3.03;;;;;;;;;;5101553;28;20201;-76
2022/05/23 10:52:30;;;;;;;8.03;3.30;;;;;;;;;;5099117;28;20203;-77
2022/05/23 10:55:01;;;;;;;5.63;3.33;;;;;;;;;;5099514;28;20211;-76
2022/05/23 10:57:37;;;;;;;6.23;3.13;;;;;;;;;;5099351;28;20262;-77
2022/05/23 11:00:06;;;;;;;10.33;3.77;;;;;;;;;;5095835;28;20251;-77
2022/05/23 11:02:47;;;;;;;5.67;3.83;;;;;;;;;;5098620;28;20257;-69
2022/05/23 11:05:21;;;;;;;6.67;3.50;;;;;;;;;;5098836;28;20575;-68
2022/05/23 11:08:02;;;;;;;9.40;3.10;;;;;;;;;;5099194;28;20201;-69
2022/05/23 11:10:34;;;;;;;6.27;2.80;;;;;;;;;;5100686;28;20207;-67
2022/05/23 11:13:12;;;;;;;11.10;2.97;;;;;;;;;;5099679;28;20214;-67
2022/05/23 11:15:43;;;;;;;8.77;3.20;;;;;;;;;;5088887;28;20565;-70
2022/05/23 11:18:17;;;;;;;6.03;3.00;;;;;;;;;;5100388;28;20216;-69
2022/05/23 11:20:46;;;;;;;9.63;3.37;;;;;;;;;;5100061;28;20586;-67
2022/05/23 11:23:20;;;;;;;5.63;2.83;;;;;;;;;;5100306;28;20218;-68
2022/05/23 11:25:56;;;;;;;17.60;3.90;;;;;;;;;;5098958;28;20231;-67
2022/05/23 11:34:05;;;;;;;10.53;2.87;;;;;;;;;;5100503;28;20296;-68
2022/05/23 11:36:56;;;;;;;13.17;10.20;;;;;;;;;;5100235;28;20224;-70
2022/05/23 11:39:43;;;;;;;10.67;3.80;;;;;;;;;;5100526;28;20219;-70
2022/05/23 11:42:12;;;;;;;6.93;3.73;;;;;;;;;;5100018;28;20778;-73
2022/05/23 11:44:55;;;;;;;10.33;3.27;;;;;;;;;;5100471;28;20207;-67
2022/05/23 11:47:25;;;;;;;14.77;3.60;;;;;;;;;;5098040;28;20654;-72
2022/05/23 11:50:16;;;;;;;9.57;3.27;;;;;;;;;;5100202;28;20217;-78
2022/05/23 11:52:48;;;;;;;3.90;2.73;;;;;;;;;;5099710;28;20206;-78
2022/05/23 11:55:30;;;;;;;6.30;2.93;;;;;;;;;;5098895;28;20676;-78
2022/05/23 11:58:17;;;;;;;10.27;3.07;;;;;;;;;;5086572;28;20204;-77
2022/05/23 12:01:02;;;;;;;7.57;2.43;;;;;;;;;;5089319;28;20670;-78
2022/05/23 12:03:57;;;;;;;8.10;2.53;;;;;;;;;;5100032;28;20233;-74
2022/05/23 12:06:36;;;;;;;7.70;2.23;;;;;;;;;;5099497;28;20256;-74
2022/05/23 12:09:05;;;;;;;7.37;2.70;;;;;;;;;;5099680;28;20208;-74
2022/05/23 12:11:34;;;;;;;7.00;2.80;;;;;;;;;;5099713;28;20208;-74
2022/05/23 12:14:14;;;;;;;7.70;2.93;;;;;;;;;;5099899;28;20203;-74
2022/05/23 12:16:43;;;;;;;6.80;2.77;;;;;;;;;;5099314;28;20696;-74
2022/05/23 12:19:22;;;;;;;6.27;2.47;;;;;;;;;;5099236;28;20675;-76
2022/05/23 12:21:51;;;;;;;4.03;2.70;;;;;;;;;;5099043;28;20228;-76
2022/05/23 12:24:26;;;;;;;5.47;2.50;;;;;;;;;;5099485;28;20208;-76
2022/05/23 12:27:23;;;;;;;8.00;2.33;;;;;;;;;;5099380;28;20222;-76
2022/05/23 12:30:11;;;;;;;4.77;2.50;;;;;;;;;;5099607;28;20208;-77
2022/05/23 12:32:40;;;;;;;5.43;2.23;;;;;;;;;;5099215;28;20233;-77
2022/05/23 12:35:09;;;;;;;11.87;2.53;;;;;;;;;;5099453;28;20203;-76
2022/05/23 12:37:41;;;;;;;5.77;2.40;;;;;;;;;;5099072;28;20206;-72
2022/05/23 12:40:14;;;;;;;5.23;2.43;;;;;;;;;;5099355;28;20203;-71
2022/05/23 12:42:57;;;;;;;4.27;1.83;;;;;;;;;;5099120;28;20261;-71
2022/05/23 12:45:42;;;;;;;3.67;2.87;;;;;;;;;;5096808;28;20314;-71
2022/05/23 12:48:29;;;;;;;4.63;2.70;;;;;;;;;;5099202;28;20293;-70
2022/05/23 12:51:06;;;;;;;7.00;2.17;;;;;;;;;;5098787;28;20207;-72
2022/05/23 12:53:40;;;;;;;6.07;2.03;;;;;;;;;;5098362;28;20203;-75
2022/05/23 12:56:18;;;;;;;7.17;1.83;;;;;;;;;;5098810;28;20593;-74
2022/05/23 12:59:06;;;;;;;3.60;2.40;;;;;;;;;;5098517;28;20203;-74
2022/05/23 13:01:36;;;;;;;5.30;2.00;;;;;;;;;;5097031;28;20748;-74
2022/05/23 13:04:08;;;;;;;5.20;1.90;;;;;;;;;;5090613;28;20242;-74
2022/05/23 13:06:39;;;;;;;5.40;2.13;;;;;;;;;;5098190;28;20304;-74
2022/05/23 13:09:09;;;;;;;4.97;2.17;;;;;;;;;;5098164;28;20248;-74
2022/05/23 13:11:39;;;;;;;3.67;1.60;;;;;;;;;;5098639;28;20208;-74
2022/05/23 13:14:08;;;;;;;4.93;2.07;;;;;;;;;;5088281;28;20360;-74
2022/05/23 13:16:37;;;;;;;6.80;2.40;;;;;;;;;;5098334;28;20243;-74
2022/05/23 13:22:10;;;;;;;9.03;2.30;;;;;;;;;;5084730;28;20224;-74
2022/05/23 13:24:53;;;;;;;9.23;2.80;;;;;;;;;;5098061;28;20726;-74
2022/05/23 13:27:23;;;;;;;4.80;2.53;;;;;;;;;;5098537;28;20232;-74
2022/05/23 13:29:52;;;;;;;5.10;2.37;;;;;;;;;;5098074;28;20266;-74
2022/05/23 13:32:20;;;;;;;8.33;2.43;;;;;;;;;;5098017;28;20745;-73
2022/05/23 13:34:49;;;;;;;6.60;2.23;;;;;;;;;;5098103;28;20236;-74
2022/05/23 13:37:34;;;;;;;3.70;2.70;;;;;;;;;;5097960;28;20232;-74
2022/05/23 13:40:09;;;;;;;5.63;2.47;;;;;;;;;;5098078;28;20261;-74
2022/05/23 13:42:37;;;;;;;5.23;1.70;;;;;;;;;;5097714;28;20216;-74
2022/05/23 13:45:10;;;;;;;7.30;1.90;;;;;;;;;;5097819;28;20684;-74
2022/05/23 13:47:41;;;;;;;5.43;1.80;;;;;;;;;;5098034;28;20265;-74
2022/05/23 13:50:13;;;;;;;6.50;2.27;;;;;;;;;;5098094;28;20233;-74
2022/05/23 13:52:48;;;;;;;5.17;1.97;;;;;;;;;;5097399;28;20722;-74
2022/05/23 13:55:17;;;;;;;2.57;1.60;;;;;;;;;;5097972;28;20203;-74
2022/05/23 13:57:48;;;;;;;4.57;1.90;;;;;;;;;;5097922;28;20209;-74
2022/05/23 14:00:20;;;;;;;3.50;1.60;;;;;;;;;;5097795;28;20212;-74
2022/05/23 14:02:51;;;;;;;2.70;1.53;;;;;;;;;;5097335;28;20267;-74
2022/05/23 14:05:20;;;;;;;4.30;1.80;;;;;;;;;;5097449;28;20669;-74
2022/05/23 14:07:51;;;;;;;5.47;1.77;;;;;;;;;;5097258;28;20254;-73
2022/05/23 14:10:20;;;;;;;3.00;1.87;;;;;;;;;;5097507;28;20653;-72
2022/05/23 14:12:48;;;;;;;5.07;2.00;;;;;;;;;;5092545;28;20196;-73
2022/05/23 14:15:21;;;;;;;2.93;1.70;;;;;;;;;;5097055;28;20264;-75
2022/05/23 14:17:49;;;;;;;8.57;1.80;;;;;;;;;;5096775;28;20230;-73
2022/05/23 14:20:23;;;;;;;3.03;1.70;;;;;;;;;;5097252;28;20227;-73
2022/05/23 14:23:04;;;;;;;4.87;2.23;;;;;;;;;;5096769;28;20225;-73
2022/05/23 14:25:34;;;;;;;5.80;1.90;;;;;;;;;;5097175;28;20225;-73
2022/05/23 14:28:15;;;;;;;7.77;1.97;;;;;;;;;;5097098;28;20209;-72
2022/05/23 14:30:44;;;;;;;5.63;2.13;;;;;;;;;;5097145;28;20605;-73
2022/05/23 14:33:19;;;;;;;6.40;1.80;;;;;;;;;;5099774;28;20570;-72
2022/05/23 14:35:51;;;;;;;4.73;2.13;;;;;;;;;;5093442;28;20245;-73
2022/05/23 14:38:23;;;;;;;5.43;2.10;;;;;;;;;;5095714;28;20229;-74
2022/05/23 14:40:51;;;;;;;3.37;1.97;;;;;;;;;;5093729;28;20236;-72
2022/05/23 14:43:23;;;;;;;4.40;2.50;;;;;;;;;;5096336;28;20254;-72
2022/05/23 14:45:53;;;;;;;6.80;2.10;;;;;;;;;;5097387;28;20261;-73
2022/05/23 14:48:24;;;;;;;2.97;1.73;;;;;;;;;;5097123;28;20205;-71
2022/05/23 14:50:53;;;;;;;5.93;2.03;;;;;;;;;;5096920;28;20548;-73
2022/05/23 14:56:18;;;;;;;7.10;2.10;;;;;;;;;;5096975;28;20261;-72
2022/05/23 15:01:37;;;;;;;3.57;1.60;;;;;;;;;;5096757;28;20602;-72
2022/05/23 15:04:06;;;;;;;5.20;2.23;;;;;;;;;;5095334;28;20313;-73
2022/05/23 15:06:34;;;;;;;3.17;2.40;;;;;;;;;;5096803;28;20232;-74
2022/05/23 15:09:04;;;;;;;2.83;2.13;;;;;;;;;;5097011;28;20205;-74
2022/05/23 15:11:34;;;;;;;3.40;1.90;;;;;;;;;;5092979;28;20252;-74
2022/05/23 15:14:02;;;;;;;8.30;3.17;;;;;;;;;;5096258;28;20202;-73
2022/05/23 15:16:32;;;;;;;5.30;2.20;;;;;;;;;;5096777;28;20550;-73
2022/05/23 15:19:01;;;;;;;4.23;2.40;;;;;;;;;;5096615;28;20229;-73
2022/05/23 15:21:29;;;;;;;5.87;2.33;;;;;;;;;;5090492;28;20205;-73
2022/05/23 15:24:02;;;;;;;4.47;2.10;;;;;;;;;;5087997;28;20226;-72
2022/05/23 15:26:35;;;;;;;2.53;1.90;;;;;;;;;;5106649;28;20228;-73
2022/05/23 15:29:04;;;;;;;254.57;160.77;;;;;;;;;;5097620;28;20205;-83
2022/05/23 15:31:33;;;;;;;85.23;52.13;;;;;;;;;;5100626;28;20213;-71
2022/05/23 15:34:01;;;;;;;8.47;5.20;;;;;;;;;;5100813;28;20201;-72
2022/05/23 15:36:29;;;;;;;4.03;3.33;;;;;;;;;;5100058;28;20225;-71
2022/05/23 15:38:58;;;;;;;8.33;3.10;;;;;;;;;;5093178;28;20238;-71
2022/05/23 15:41:26;;;;;;;8.30;3.17;;;;;;;;;;5097999;28;20233;-71
2022/05/23 15:43:56;;;;;;;4.77;2.33;;;;;;;;;;5101112;28;20236;-71
2022/05/23 15:46:26;;;;;;;4.67;2.27;;;;;;;;;;5099085;28;20221;-70
2022/05/23 15:48:54;;;;;;;3.57;2.23;;;;;;;;;;5099421;28;20229;-72
2022/05/23 15:51:22;;;;;;;7.93;2.30;;;;;;;;;;5098830;28;20194;-72
2022/05/23 15:53:51;;;;;;;5.73;2.20;;;;;;;;;;5099052;28;20217;-72
2022/05/23 15:56:20;;;;;;;4.60;2.03;;;;;;;;;;5098196;28;20257;-71
2022/05/23 15:58:48;;;;;;;3.80;1.80;;;;;;;;;;5099120;28;20615;-69
2022/05/23 16:01:20;;;;;;;4.47;1.93;;;;;;;;;;5086387;28;20242;-70
2022/05/23 16:03:48;;;;;;;7.63;2.63;;;;;;;;;;5100105;28;20225;-70
2022/05/23 16:06:16;;;;;;;3.30;1.80;;;;;;;;;;5099653;28;20312;-70